Time;durP1;ratioP1;P1;durP2;ratioP2;P2;SDS_P1;SDS_P2;PMS_P1;PMS_P2;Temp;Humidity;BMP_temperature;BMP_pressure;BME280_temperature;BME280_humidity;BME280_pressure;Samples;Min_cycle;Max_cycle;Signal;HPM_P1;HPM_P2
2022/05/15 00:01:36;;;;;;;17.25;5.78;;;18.50;92.30;;;;;;5058233;28;20120;-85
2022/05/15 00:04:02;;;;;;;22.50;5.20;;;18.40;92.20;;;;;;5039913;28;20450;-85
2022/05/15 00:06:28;;;;;;;19.75;5.65;;;18.40;92.00;;;;;;5022930;28;20033;-85
2022/05/15 00:08:53;;;;;;;20.90;5.60;;;18.40;91.90;;;;;;5055980;28;20028;-85
2022/05/15 00:11:19;;;;;;;18.80;5.63;;;18.30;91.90;;;;;;5039572;28;20025;-85
2022/05/15 00:13:47;;;;;;;19.70;5.60;;;18.30;91.80;;;;;;5054542;28;20017;-84
2022/05/15 00:16:13;;;;;;;20.42;5.28;;;18.30;91.90;;;;;;5052700;28;20032;-85
2022/05/15 00:18:39;;;;;;;20.15;6.32;;;18.20;91.80;;;;;;5052669;28;20021;-85
2022/05/15 00:21:07;;;;;;;18.10;5.20;;;18.20;91.70;;;;;;5019866;28;20053;-85
2022/05/15 00:23:32;;;;;;;19.52;5.40;;;18.20;91.40;;;;;;5054269;28;20028;-85
2022/05/15 00:25:58;;;;;;;21.52;5.47;;;18.10;91.30;;;;;;5020148;28;20108;-85
2022/05/15 00:28:24;;;;;;;24.55;7.20;;;18.20;91.40;;;;;;5053732;28;20037;-85
2022/05/15 00:30:51;;;;;;;19.50;5.40;;;18.10;91.10;;;;;;5052273;28;20112;-85
2022/05/15 00:33:18;;;;;;;20.35;5.20;;;18.10;90.80;;;;;;5055854;28;20060;-85
2022/05/15 00:35:43;;;;;;;17.83;5.40;;;18.00;90.50;;;;;;5057257;28;20017;-85
2022/05/15 00:38:11;;;;;;;26.58;6.15;;;18.00;90.30;;;;;;5056152;28;20070;-85
2022/05/15 00:40:39;;;;;;;19.08;5.22;;;17.90;90.50;;;;;;5039493;28;20035;-85
2022/05/15 00:43:10;;;;;;;19.13;5.80;;;17.90;90.60;;;;;;5057405;28;20474;-83
2022/05/15 00:45:36;;;;;;;17.85;5.20;;;17.90;90.50;;;;;;5055705;28;20045;-85
2022/05/15 00:48:02;;;;;;;16.52;4.70;;;17.90;90.50;;;;;;5039116;28;20036;-85
2022/05/15 00:50:32;;;;;;;20.95;5.68;;;17.80;90.50;;;;;;5039433;28;20025;-85
2022/05/15 00:53:02;;;;;;;19.60;4.95;;;17.80;90.50;;;;;;5056107;28;20028;-85
2022/05/15 00:55:33;;;;;;;18.35;4.97;;;17.80;90.40;;;;;;5055641;28;20421;-85
2022/05/15 00:58:08;;;;;;;28.13;6.85;;;17.70;90.40;;;;;;5056740;28;20056;-85
2022/05/15 01:00:34;;;;;;;24.00;5.40;;;17.70;90.50;;;;;;5055103;28;20029;-84
2022/05/15 01:03:00;;;;;;;17.92;5.47;;;17.70;90.40;;;;;;5056438;28;20036;-84
2022/05/15 01:05:26;;;;;;;18.60;5.53;;;17.60;90.50;;;;;;5055023;28;20389;-84
2022/05/15 01:07:52;;;;;;;18.92;5.30;;;17.60;90.60;;;;;;5055173;28;20025;-84
2022/05/15 01:10:18;;;;;;;18.20;5.03;;;17.60;90.60;;;;;;5038494;28;20025;-84
2022/05/15 01:12:45;;;;;;;19.73;5.80;;;17.60;90.60;;;;;;5038448;28;20025;-84
2022/05/15 01:15:17;;;;;;;20.45;5.40;;;17.50;90.50;;;;;;5054750;28;20061;-84
2022/05/15 01:17:42;;;;;;;21.95;6.22;;;17.50;90.70;;;;;;5054744;28;20371;-84
2022/05/15 01:20:14;;;;;;;24.27;5.15;;;17.50;90.70;;;;;;5038053;28;20030;-84
2022/05/15 01:22:40;;;;;;;18.33;5.20;;;17.50;91.00;;;;;;5055128;28;20025;-84
2022/05/15 01:25:18;;;;;;;17.00;4.88;;;17.50;91.30;;;;;;5021826;28;20110;-83
2022/05/15 01:28:47;;;;;;;;;;;;;;;;;;;;;
2022/05/15 01:31:26;;;;;;;21.13;5.90;;;17.40;91.30;;;;;;5055122;28;20033;-84
2022/05/15 01:33:52;;;;;;;20.60;5.30;;;17.40;91.50;;;;;;5054671;28;20021;-84
2022/05/15 01:36:21;;;;;;;21.98;4.90;;;17.30;91.50;;;;;;5054684;28;20075;-84
2022/05/15 01:39:14;;;;;;;21.25;6.05;;;17.30;91.40;;;;;;5054631;28;20047;-84
2022/05/15 01:41:43;;;;;;;24.15;5.18;;;17.30;91.60;;;;;;5054552;28;20033;-84
2022/05/15 01:44:08;;;;;;;21.27;5.68;;;17.30;91.40;;;;;;5054212;28;20028;-84
2022/05/15 01:46:34;;;;;;;19.48;5.45;;;17.20;91.40;;;;;;5020760;28;20045;-84
2022/05/15 01:49:06;;;;;;;16.50;5.57;;;17.20;91.30;;;;;;5037691;28;20056;-84
2022/05/15 01:51:33;;;;;;;16.42;5.15;;;17.20;91.40;;;;;;5054689;28;20067;-84
2022/05/15 01:54:00;;;;;;;18.27;5.72;;;17.20;91.30;;;;;;5054347;28;20459;-84
2022/05/15 01:56:26;;;;;;;19.70;5.28;;;17.20;91.50;;;;;;5021362;28;20394;-84
2022/05/15 01:58:52;;;;;;;22.08;5.03;;;17.20;91.60;;;;;;5054176;28;20032;-84
2022/05/15 02:01:17;;;;;;;19.98;4.82;;;17.10;91.40;;;;;;5038256;28;20174;-84
2022/05/15 02:03:43;;;;;;;19.17;4.80;;;17.10;91.40;;;;;;5054479;28;20025;-84
2022/05/15 02:06:09;;;;;;;23.10;5.78;;;17.10;91.20;;;;;;5081885;23;20145;-86
2022/05/15 02:08:36;;;;;;;20.08;5.57;;;17.00;91.20;;;;;;4995056;28;20029;-86
2022/05/15 02:11:02;;;;;;;20.38;4.72;;;17.00;91.20;;;;;;4995110;28;20050;-86
2022/05/15 02:13:28;;;;;;;18.20;5.00;;;17.00;91.30;;;;;;4994730;28;20375;-85
2022/05/15 02:15:57;;;;;;;24.45;5.78;;;16.90;91.10;;;;;;4994074;28;20539;-86
2022/05/15 02:18:23;;;;;;;19.17;5.22;;;16.90;91.30;;;;;;4994077;28;20035;-86
2022/05/15 02:20:49;;;;;;;20.10;5.05;;;16.90;91.40;;;;;;4994069;28;20030;-86
2022/05/15 02:23:15;;;;;;;19.90;5.25;;;16.90;91.40;;;;;;4994003;28;20133;-86
2022/05/15 02:25:41;;;;;;;17.25;4.97;;;16.90;91.50;;;;;;5010236;28;20038;-86
2022/05/15 02:28:07;;;;;;;21.05;5.45;;;16.80;91.50;;;;;;4994178;28;20031;-86
2022/05/15 02:30:33;;;;;;;17.85;5.13;;;16.80;91.30;;;;;;4994199;28;20093;-86
2022/05/15 02:32:59;;;;;;;22.73;5.55;;;16.80;91.30;;;;;;4993977;28;20464;-86
2022/05/15 02:35:25;;;;;;;20.42;5.43;;;16.70;91.30;;;;;;4993847;28;20106;-86
2022/05/15 02:37:51;;;;;;;17.15;4.35;;;16.70;91.30;;;;;;4993952;28;20034;-86
2022/05/15 02:40:20;;;;;;;16.77;5.03;;;16.70;91.30;;;;;;4994196;28;20065;-86
2022/05/15 02:42:46;;;;;;;16.77;5.18;;;16.70;91.40;;;;;;4994178;28;20022;-86
2022/05/15 02:45:12;;;;;;;21.40;5.47;;;16.60;91.30;;;;;;5010099;28;20117;-86
2022/05/15 02:47:39;;;;;;;20.95;5.60;;;16.60;91.40;;;;;;4994249;28;20529;-85
2022/05/15 02:52:50;;;;;;;17.58;5.05;;;16.60;91.70;;;;;;4995210;28;20029;-85
2022/05/15 02:55:16;;;;;;;19.95;5.47;;;16.60;91.80;;;;;;4993094;28;20026;-86
2022/05/15 02:57:43;;;;;;;22.20;4.82;;;16.60;91.80;;;;;;4993639;28;20073;-86
2022/05/15 03:00:11;;;;;;;17.65;5.10;;;16.60;91.80;;;;;;4993456;28;20030;-86
2022/05/15 03:02:40;;;;;;;18.30;5.55;;;16.50;92.00;;;;;;4993355;28;20093;-86
2022/05/15 03:05:08;;;;;;;24.35;5.43;;;16.50;92.00;;;;;;4994538;28;20193;-86
2022/05/15 03:07:36;;;;;;;16.90;4.75;;;16.50;92.20;;;;;;4993209;28;20028;-86
2022/05/15 03:10:02;;;;;;;19.13;5.80;;;16.50;92.20;;;;;;4993431;28;20097;-85
2022/05/15 03:12:28;;;;;;;21.00;5.20;;;16.50;92.40;;;;;;4993528;28;20024;-86
2022/05/15 03:14:54;;;;;;;25.08;5.18;;;16.40;92.50;;;;;;5010310;28;20484;-86
2022/05/15 03:17:21;;;;;;;18.90;5.07;;;16.40;92.50;;;;;;4994091;28;20077;-86
2022/05/15 03:19:46;;;;;;;15.23;4.88;;;16.40;92.40;;;;;;4993249;28;20162;-86
2022/05/15 03:22:12;;;;;;;20.75;5.13;;;16.30;92.20;;;;;;4993808;28;20045;-86
2022/05/15 03:24:38;;;;;;;20.50;5.38;;;16.30;92.40;;;;;;4992964;28;20451;-86
2022/05/15 03:27:04;;;;;;;16.63;4.80;;;16.30;92.50;;;;;;4993391;28;20034;-86
2022/05/15 03:29:30;;;;;;;19.27;5.82;;;16.30;92.40;;;;;;4993707;28;20034;-86
2022/05/15 03:31:56;;;;;;;20.55;5.93;;;16.30;92.30;;;;;;4993735;28;20033;-86
2022/05/15 03:34:23;;;;;;;19.23;5.22;;;16.20;92.40;;;;;;5009750;28;20030;-86
2022/05/15 03:36:53;;;;;;;20.42;5.15;;;16.20;92.60;;;;;;4994104;28;20023;-86
2022/05/15 03:39:21;;;;;;;18.60;5.63;;;16.20;92.70;;;;;;4993029;28;20109;-86
2022/05/15 03:41:50;;;;;;;21.05;5.50;;;16.20;92.50;;;;;;4993050;28;20226;-86
2022/05/15 03:44:16;;;;;;;17.65;4.97;;;16.20;92.60;;;;;;4992729;28;20050;-86
2022/05/15 03:46:43;;;;;;;18.85;5.65;;;16.20;92.60;;;;;;4993333;28;20349;-86
2022/05/15 03:49:11;;;;;;;18.20;5.65;;;16.10;92.80;;;;;;4993383;28;20027;-86
2022/05/15 03:51:37;;;;;;;16.75;5.10;;;16.10;93.00;;;;;;4993246;28;20017;-86
2022/05/15 03:54:03;;;;;;;19.20;4.93;;;16.10;93.00;;;;;;4992691;28;20029;-86
2022/05/15 03:59:14;;;;;;;21.23;5.65;;;16.00;92.90;;;;;;5007332;28;20046;-86
2022/05/15 04:01:40;;;;;;;17.73;5.80;;;15.90;92.70;;;;;;4992679;28;20057;-86
2022/05/15 04:04:07;;;;;;;26.08;6.00;;;15.90;92.60;;;;;;4992655;28;20031;-85
2022/05/15 04:06:32;;;;;;;21.20;5.38;;;15.90;92.70;;;;;;4995460;28;20046;-86
2022/05/15 04:08:58;;;;;;;17.65;4.82;;;15.90;92.60;;;;;;4996955;28;20038;-86
2022/05/15 04:11:24;;;;;;;22.80;5.60;;;15.90;92.80;;;;;;4997019;28;20606;-86
2022/05/15 04:13:50;;;;;;;18.52;5.18;;;15.80;92.90;;;;;;4997487;28;20030;-85
2022/05/15 04:16:16;;;;;;;20.73;5.82;;;15.80;93.10;;;;;;4997229;28;20026;-86
2022/05/15 04:18:41;;;;;;;16.67;4.63;;;15.80;93.20;;;;;;4997286;28;20117;-86
2022/05/15 04:21:07;;;;;;;18.75;5.30;;;15.80;93.10;;;;;;4997001;28;20077;-85
2022/05/15 04:23:33;;;;;;;18.25;5.90;;;15.80;93.10;;;;;;4996897;28;20034;-85
2022/05/15 04:25:59;;;;;;;16.42;4.68;;;15.80;93.20;;;;;;4996137;28;20033;-85
2022/05/15 04:28:24;;;;;;;18.58;5.00;;;15.80;93.30;;;;;;4996351;28;20018;-86
2022/05/15 04:30:50;;;;;;;15.50;4.30;;;15.70;93.50;;;;;;4996171;28;20065;-85
2022/05/15 04:33:16;;;;;;;21.65;5.20;;;15.70;93.60;;;;;;4996794;28;20023;-86
2022/05/15 04:35:42;;;;;;;23.20;6.05;;;15.70;93.90;;;;;;5013135;28;20515;-86
2022/05/15 04:38:09;;;;;;;20.65;5.60;;;15.70;93.70;;;;;;4996314;28;20029;-85
2022/05/15 04:40:35;;;;;;;20.63;5.20;;;15.70;93.90;;;;;;4995994;28;20023;-85
2022/05/15 04:43:01;;;;;;;14.90;4.00;;;15.70;93.90;;;;;;4996176;28;20068;-86
2022/05/15 04:45:27;;;;;;;17.45;5.22;;;15.70;93.90;;;;;;4996496;28;20030;-86
2022/05/15 04:47:53;;;;;;;16.10;5.47;;;15.60;93.90;;;;;;4995772;28;20018;-85
2022/05/15 04:50:19;;;;;;;20.30;5.45;;;15.60;94.00;;;;;;4995912;28;20021;-86
2022/05/15 04:52:45;;;;;;;18.02;5.47;;;15.60;93.90;;;;;;4995799;28;20038;-86
2022/05/15 04:55:12;;;;;;;18.48;4.95;;;15.60;94.10;;;;;;4995682;28;20026;-86
2022/05/15 04:57:38;;;;;;;22.33;5.68;;;15.60;94.20;;;;;;4996443;28;20088;-86
2022/05/15 05:00:08;;;;;;;19.25;5.45;;;15.60;94.40;;;;;;4996508;28;20022;-85
2022/05/15 05:02:34;;;;;;;19.48;5.80;;;15.60;94.50;;;;;;4996080;28;20033;-86
2022/05/15 05:04:59;;;;;;;15.98;4.88;;;15.60;94.50;;;;;;4995882;28;20050;-86
2022/05/15 05:07:29;;;;;;;23.23;5.47;;;15.60;94.50;;;;;;4996196;28;20042;-86
2022/05/15 05:09:55;;;;;;;16.67;4.57;;;15.60;94.60;;;;;;4996065;28;20015;-86
2022/05/15 05:12:21;;;;;;;17.20;5.57;;;15.60;94.80;;;;;;4995666;28;20464;-86
2022/05/15 05:14:47;;;;;;;19.92;5.22;;;15.50;94.90;;;;;;4995519;28;20081;-86
2022/05/15 05:17:14;;;;;;;20.85;5.38;;;15.50;95.00;;;;;;4995401;28;20027;-85
2022/05/15 05:19:40;;;;;;;18.77;5.60;;;15.50;95.10;;;;;;4996118;28;20081;-85
2022/05/15 05:22:05;;;;;;;25.20;6.90;;;15.60;95.20;;;;;;4995953;28;20030;-86
2022/05/15 05:24:31;;;;;;;32.15;7.07;;;15.50;95.10;;;;;;4995070;28;20468;-85
2022/05/15 05:26:57;;;;;;;23.45;6.35;;;15.60;95.00;;;;;;4995115;28;20476;-85
2022/05/15 05:29:23;;;;;;;19.13;6.18;;;15.60;95.10;;;;;;4995033;28;20380;-86
2022/05/15 05:31:49;;;;;;;20.35;5.50;;;15.60;95.20;;;;;;4995369;28;20439;-85
2022/05/15 05:34:15;;;;;;;23.63;6.20;;;15.60;95.20;;;;;;4995691;28;20030;-85
2022/05/15 05:36:41;;;;;;;21.60;5.72;;;15.60;95.20;;;;;;5011869;28;20037;-86
2022/05/15 05:39:07;;;;;;;17.38;5.82;;;15.60;95.20;;;;;;4995409;28;20400;-85
2022/05/15 05:41:33;;;;;;;21.83;5.57;;;15.50;95.20;;;;;;4995277;28;20045;-85
2022/05/15 05:44:00;;;;;;;15.57;5.00;;;15.60;95.30;;;;;;4995186;28;20022;-85
2022/05/15 05:46:27;;;;;;;17.10;5.65;;;15.60;95.60;;;;;;4995389;28;20034;-85
2022/05/15 05:48:53;;;;;;;14.10;5.40;;;15.60;95.80;;;;;;4995254;28;20030;-85
2022/05/15 05:51:19;;;;;;;17.67;5.90;;;15.60;96.20;;;;;;4994718;28;20460;-86
2022/05/15 05:53:44;;;;;;;16.33;4.90;;;15.60;95.80;;;;;;4994600;28;20077;-86
2022/05/15 05:56:10;;;;;;;19.23;5.10;;;15.70;96.00;;;;;;4995044;28;20032;-86
2022/05/15 05:58:37;;;;;;;24.55;6.05;;;15.70;96.00;;;;;;4994674;28;20034;-86
2022/05/15 06:01:02;;;;;;;15.70;5.45;;;15.70;95.90;;;;;;4995053;28;20070;-86
2022/05/15 06:06:12;;;;;;;16.48;5.70;;;15.70;96.10;;;;;;5008925;28;20100;-86
2022/05/15 06:08:39;;;;;;;18.88;5.75;;;15.70;96.00;;;;;;4995005;28;20023;-85
2022/05/15 06:11:05;;;;;;;17.88;5.95;;;15.70;95.80;;;;;;4994771;28;20142;-86
2022/05/15 06:13:31;;;;;;;15.35;5.47;;;15.80;95.80;;;;;;4994562;28;20062;-85
2022/05/15 06:15:58;;;;;;;17.17;5.75;;;15.80;95.80;;;;;;4994299;28;20042;-85
2022/05/15 06:18:23;;;;;;;15.70;5.35;;;15.80;96.00;;;;;;4994207;28;20022;-85
2022/05/15 06:20:49;;;;;;;16.15;5.00;;;15.80;96.10;;;;;;4994235;28;20026;-85
2022/05/15 06:23:15;;;;;;;17.00;5.97;;;15.80;96.10;;;;;;4995968;28;20483;-85
2022/05/15 06:25:40;;;;;;;23.25;6.05;;;15.80;96.20;;;;;;4996373;28;20027;-84
2022/05/15 06:28:06;;;;;;;19.02;6.45;;;15.90;96.30;;;;;;4979852;28;20045;-85
2022/05/15 06:30:32;;;;;;;18.98;5.97;;;15.90;96.20;;;;;;4994405;28;20030;-85
2022/05/15 06:32:59;;;;;;;17.90;5.70;;;15.90;96.20;;;;;;4994266;28;20081;-85
2022/05/15 06:35:25;;;;;;;17.10;6.38;;;16.00;96.40;;;;;;4993924;28;20027;-85
2022/05/15 06:37:50;;;;;;;15.60;5.32;;;16.00;96.30;;;;;;4993903;28;20030;-85
2022/05/15 06:40:17;;;;;;;14.57;5.57;;;16.10;96.20;;;;;;4993676;28;20050;-85
2022/05/15 06:42:43;;;;;;;25.67;6.03;;;16.10;96.20;;;;;;5010156;28;20030;-85
2022/05/15 06:45:10;;;;;;;17.85;6.00;;;16.10;96.20;;;;;;5009882;28;20105;-84
2022/05/15 06:47:36;;;;;;;15.25;5.97;;;16.20;96.20;;;;;;4993589;28;20034;-85
2022/05/15 06:50:03;;;;;;;15.85;6.38;;;16.20;96.30;;;;;;4994862;28;20014;-85
2022/05/15 06:52:28;;;;;;;17.95;6.22;;;16.20;96.60;;;;;;4993783;28;20165;-85
2022/05/15 06:54:54;;;;;;;14.23;5.40;;;16.30;96.40;;;;;;4993909;28;20084;-85
2022/05/15 06:57:30;;;;;;;18.90;5.53;;;16.30;96.50;;;;;;4993871;28;20037;-85
2022/05/15 07:00:01;;;;;;;15.38;5.15;;;16.30;96.70;;;;;;4994042;28;20026;-85
2022/05/15 07:02:27;;;;;;;;;;;16.40;96.60;;;;;;5010687;28;20026;-85
2022/05/15 07:04:53;;;;;;;17.05;5.70;;;16.50;96.40;;;;;;4993705;28;20320;-85
2022/05/15 07:07:25;;;;;;;15.20;5.90;;;16.50;96.50;;;;;;4993708;28;20108;-85
2022/05/15 07:09:53;;;;;;;16.38;6.10;;;16.50;96.50;;;;;;4993828;28;20026;-85
2022/05/15 07:12:18;;;;;;;15.07;5.30;;;16.60;96.60;;;;;;5010075;28;20376;-87
2022/05/15 07:14:44;;;;;;;16.67;5.75;;;16.60;96.50;;;;;;4993753;28;20035;-85
2022/05/15 07:17:10;;;;;;;19.02;5.47;;;16.70;96.60;;;;;;4993539;28;20389;-84
2022/05/15 07:19:36;;;;;;;19.42;6.60;;;16.80;96.70;;;;;;4993671;28;20531;-85
2022/05/15 07:22:02;;;;;;;13.63;5.65;;;16.80;96.50;;;;;;4993519;28;20045;-85
2022/05/15 07:24:28;;;;;;;13.50;5.15;;;16.90;96.60;;;;;;4993295;28;20022;-84
2022/05/15 07:26:54;;;;;;;17.10;6.38;;;17.00;96.80;;;;;;5009707;28;20025;-85
2022/05/15 07:29:20;;;;;;;18.60;5.97;;;17.10;96.80;;;;;;4993300;28;20041;-84
2022/05/15 07:31:47;;;;;;;19.00;6.57;;;17.20;96.80;;;;;;4993654;28;20419;-85
2022/05/15 07:34:13;;;;;;;14.75;6.03;;;17.20;96.80;;;;;;4992652;28;20037;-85
2022/05/15 07:36:38;;;;;;;17.10;6.43;;;17.30;96.70;;;;;;4981483;28;20113;-85
2022/05/15 07:39:05;;;;;;;16.35;6.30;;;17.40;96.60;;;;;;4985724;28;20026;-84
2022/05/15 07:41:31;;;;;;;15.68;5.53;;;17.50;96.50;;;;;;4987242;28;20507;-84
2022/05/15 07:44:03;;;;;;;16.00;5.78;;;17.50;96.60;;;;;;5009003;28;20057;-84
2022/05/15 07:46:29;;;;;;;14.52;5.90;;;17.60;96.60;;;;;;4991774;28;20488;-85
2022/05/15 07:48:55;;;;;;;15.93;5.85;;;17.70;96.50;;;;;;4968925;28;20026;-85
2022/05/15 07:51:22;;;;;;;16.50;5.45;;;17.80;96.50;;;;;;4967203;28;20037;-86
2022/05/15 07:53:48;;;;;;;13.10;5.88;;;17.80;96.40;;;;;;4968359;28;20113;-86
2022/05/15 07:56:13;;;;;;;18.02;6.68;;;18.00;96.70;;;;;;4982063;28;20047;-85
2022/05/15 07:58:41;;;;;;;20.75;6.30;;;18.00;96.80;;;;;;5002230;28;20026;-85
2022/05/15 08:01:07;;;;;;;16.50;6.38;;;18.20;96.70;;;;;;4981357;28;20392;-85
2022/05/15 08:03:38;;;;;;;14.82;6.30;;;18.20;96.50;;;;;;4965621;28;20494;-86
2022/05/15 08:08:50;;;;;;;15.95;6.32;;;18.40;96.20;;;;;;4987008;28;20545;-85
2022/05/15 08:11:15;;;;;;;15.70;5.90;;;18.50;96.30;;;;;;4969428;28;20105;-86
2022/05/15 08:13:41;;;;;;;15.02;6.30;;;18.60;96.20;;;;;;4986791;28;20019;-84
2022/05/15 08:16:08;;;;;;;13.25;5.88;;;18.70;96.30;;;;;;4963650;28;20034;-85
2022/05/15 08:24:03;;;;;;;18.35;6.78;;;19.00;96.10;;;;;;4983134;28;20037;-85
2022/05/15 08:26:30;;;;;;;17.10;6.07;;;19.10;95.80;;;;;;4992783;28;20034;-85
2022/05/15 08:28:56;;;;;;;16.20;6.22;;;19.20;95.80;;;;;;4994296;28;20094;-86
2022/05/15 08:31:24;;;;;;;15.48;6.28;;;19.20;95.60;;;;;;4992718;28;20033;-84
2022/05/15 08:33:50;;;;;;;15.50;6.28;;;19.30;95.60;;;;;;4992902;28;20019;-86
2022/05/15 08:36:16;;;;;;;13.05;5.35;;;19.40;95.70;;;;;;4992803;28;20472;-85
2022/05/15 08:38:43;;;;;;;15.43;6.35;;;19.50;95.50;;;;;;4992904;28;20025;-85
2022/05/15 08:41:24;;;;;;;15.30;6.00;;;19.50;95.20;;;;;;4993050;28;20027;-86
2022/05/15 08:44:08;;;;;;;;;;;19.60;95.00;;;;;;4993077;28;20030;-85
2022/05/15 08:46:49;;;;;;;14.77;5.63;;;19.70;95.00;;;;;;4992573;28;19933;-84
2022/05/15 08:49:31;;;;;;;15.15;5.72;;;19.70;94.80;;;;;;4992542;28;20030;-85
2022/05/15 08:52:01;;;;;;;12.73;4.45;;;19.80;94.40;;;;;;4992889;28;20473;-85
2022/05/15 08:54:28;;;;;;;14.63;5.50;;;19.90;94.20;;;;;;4995839;28;20019;-86
2022/05/15 08:56:54;;;;;;;15.30;6.00;;;19.90;94.10;;;;;;4995900;28;20050;-85
2022/05/15 08:59:25;;;;;;;15.10;5.80;;;20.00;93.90;;;;;;4979934;28;20035;-85
2022/05/15 09:01:54;;;;;;;12.13;5.10;;;20.10;93.70;;;;;;4996112;28;20053;-85
2022/05/15 09:04:21;;;;;;;14.40;5.32;;;20.10;93.50;;;;;;4995937;28;20030;-85
2022/05/15 09:07:13;;;;;;;13.85;4.93;;;20.20;93.70;;;;;;4995949;28;20034;-86
2022/05/15 09:10:03;;;;;;;15.45;5.53;;;20.30;93.90;;;;;;4996230;28;20026;-85
2022/05/15 09:12:33;;;;;;;12.45;4.90;;;20.40;93.80;;;;;;4995930;28;20101;-85
2022/05/15 09:15:12;;;;;;;10.45;4.85;;;20.40;93.30;;;;;;4995906;28;20475;-85
2022/05/15 09:17:57;;;;;;;12.25;4.60;;;20.60;93.30;;;;;;4995721;28;20057;-86
2022/05/15 09:20:25;;;;;;;12.57;5.10;;;20.60;93.30;;;;;;4995678;28;20027;-85
2022/05/15 09:23:03;;;;;;;11.85;4.47;;;20.70;93.20;;;;;;4995759;28;20061;-86
2022/05/15 09:25:34;;;;;;;11.48;4.72;;;20.80;92.70;;;;;;4995580;28;20041;-85
2022/05/15 09:28:02;;;;;;;12.18;3.95;;;20.80;92.30;;;;;;4995508;28;20077;-85
2022/05/15 09:30:37;;;;;;;13.07;4.22;;;20.90;92.30;;;;;;4995372;28;20042;-85
2022/05/15 09:33:03;;;;;;;12.98;4.55;;;21.00;92.10;;;;;;4995592;28;20029;-85
2022/05/15 09:35:41;;;;;;;12.73;4.53;;;21.10;91.80;;;;;;4978935;28;20027;-85
2022/05/15 09:43:49;;;;;;;15.20;4.68;;;21.30;91.40;;;;;;4996727;28;20081;-85
2022/05/15 09:46:18;;;;;;;12.02;3.95;;;21.40;91.00;;;;;;4995037;28;20030;-84
2022/05/15 09:48:53;;;;;;;12.57;3.97;;;21.50;89.20;;;;;;4994891;28;20021;-84
2022/05/15 09:51:42;;;;;;;11.98;3.80;;;21.50;87.30;;;;;;4996565;28;20018;-84
2022/05/15 09:54:08;;;;;;;11.35;4.32;;;21.60;86.70;;;;;;4994893;28;20029;-83
2022/05/15 09:56:35;;;;;;;12.88;4.22;;;21.60;86.30;;;;;;4995434;28;20034;-84
2022/05/15 09:59:11;;;;;;;10.45;3.90;;;21.70;85.10;;;;;;4995018;28;20022;-84
2022/05/15 10:01:57;;;;;;;14.55;6.00;;;21.70;84.00;;;;;;4994844;28;20037;-84
2022/05/15 10:04:32;;;;;;;10.43;4.18;;;21.80;83.00;;;;;;4994667;28;20029;-84
2022/05/15 10:07:02;;;;;;;17.45;4.88;;;21.80;82.60;;;;;;4994864;28;20038;-84
2022/05/15 10:09:37;;;;;;;12.07;4.38;;;21.90;83.20;;;;;;4994766;28;20109;-85
2022/05/15 10:12:15;;;;;;;10.45;3.65;;;22.00;83.20;;;;;;4994749;28;20377;-84
2022/05/15 10:14:53;;;;;;;11.15;4.35;;;22.10;82.90;;;;;;4994708;28;20027;-84
2022/05/15 10:17:21;;;;;;;11.52;4.20;;;22.20;82.20;;;;;;4994759;28;20122;-84
2022/05/15 10:19:53;;;;;;;11.13;3.80;;;22.20;81.50;;;;;;4995185;28;20041;-85
2022/05/15 10:22:37;;;;;;;10.23;4.47;;;22.30;80.20;;;;;;4995046;28;20038;-84
2022/05/15 10:25:40;;;;;;;9.82;3.90;;;22.30;79.40;;;;;;4994336;28;20137;-84
2022/05/15 10:28:27;;;;;;;14.38;4.60;;;22.40;78.90;;;;;;4991848;28;20027;-84
2022/05/15 10:31:30;;;;;;;10.07;3.72;;;22.50;78.00;;;;;;4995578;28;20105;-83
2022/05/15 10:34:00;;;;;;;9.13;2.97;;;22.60;76.20;;;;;;4994247;28;20026;-84
2022/05/15 10:36:57;;;;;;;9.53;3.40;;;22.60;76.10;;;;;;4995460;28;20361;-84
2022/05/15 10:39:48;;;;;;;10.13;2.90;;;22.70;75.90;;;;;;4993824;28;20026;-84
2022/05/15 10:42:39;;;;;;;8.18;2.70;;;22.80;74.40;;;;;;4994358;28;20030;-85
2022/05/15 10:45:08;;;;;;;9.20;2.72;;;22.80;73.90;;;;;;4994122;28;20380;-86
2022/05/15 10:48:02;;;;;;;7.38;2.80;;;22.90;73.90;;;;;;4993903;28;20116;-86
2022/05/15 10:51:03;;;;;;;9.52;3.22;;;22.90;74.10;;;;;;4993670;28;20034;-85
2022/05/15 11:00:06;;;;;;;9.32;2.92;;;23.20;73.30;;;;;;4995370;28;20060;-85
2022/05/15 11:02:50;;;;;;;7.57;2.53;;;23.20;73.30;;;;;;4972080;28;20054;-85
2022/05/15 11:05:55;;;;;;;10.05;2.72;;;23.30;73.50;;;;;;4994435;28;20488;-85
2022/05/15 11:08:33;;;;;;;8.05;2.95;;;23.40;73.70;;;;;;4991388;28;20400;-86
2022/05/15 11:11:08;;;;;;;13.77;3.15;;;23.50;72.80;;;;;;4994766;28;20019;-85
2022/05/15 11:13:52;;;;;;;9.30;3.20;;;23.60;71.80;;;;;;4994559;28;20587;-85
2022/05/15 11:16:32;;;;;;;11.82;4.00;;;23.60;71.90;;;;;;4993019;28;20479;-85
2022/05/15 11:19:12;;;;;;;7.95;2.85;;;23.70;71.20;;;;;;4993357;28;20050;-86
2022/05/15 11:22:05;;;;;;;8.10;2.93;;;23.80;71.00;;;;;;4993260;28;20077;-85
2022/05/15 11:24:48;;;;;;;10.70;3.22;;;23.80;69.80;;;;;;4993159;28;20023;-85
2022/05/15 11:27:17;;;;;;;10.35;3.35;;;23.90;68.60;;;;;;5006288;28;20085;-85
2022/05/15 11:29:58;;;;;;;9.85;2.88;;;24.00;67.40;;;;;;4992634;28;20133;-85
2022/05/15 11:32:42;;;;;;;6.13;2.70;;;24.10;67.10;;;;;;4997755;28;20031;-85
2022/05/15 11:35:16;;;;;;;8.05;2.70;;;24.10;67.30;;;;;;4973700;28;20031;-85
2022/05/15 11:38:07;;;;;;;8.48;2.97;;;24.20;66.60;;;;;;4973588;28;20384;-85
2022/05/15 11:40:35;;;;;;;12.43;3.03;;;24.20;65.50;;;;;;4974852;28;20062;-85
2022/05/15 11:43:28;;;;;;;9.30;2.95;;;24.30;65.60;;;;;;4974272;28;20027;-85
2022/05/15 11:45:57;;;;;;;7.90;2.42;;;24.40;62.80;;;;;;4972692;28;20027;-85
2022/05/15 11:48:38;;;;;;;8.23;2.95;;;24.50;63.30;;;;;;4973591;28;20057;-85
2022/05/15 11:51:22;;;;;;;;;;;24.50;62.00;;;;;;4977582;28;20149;-86
2022/05/15 11:54:00;;;;;;;10.27;2.53;;;24.60;58.40;;;;;;4975017;28;19906;-85
2022/05/15 11:56:53;;;;;;;8.10;2.58;;;24.60;59.20;;;;;;4989606;28;20491;-85
2022/05/15 11:59:50;;;;;;;8.85;2.50;;;24.70;58.40;;;;;;4982578;28;20392;-85
2022/05/15 12:02:29;;;;;;;10.85;2.88;;;24.80;57.70;;;;;;4992132;28;20051;-85
2022/05/15 12:05:02;;;;;;;6.40;2.38;;;24.80;56.70;;;;;;4976819;28;20047;-85
2022/05/15 12:07:50;;;;;;;7.07;2.67;;;24.90;57.40;;;;;;4980684;28;20027;-85
2022/05/15 12:10:40;;;;;;;6.75;2.60;;;25.00;57.20;;;;;;4977525;28;20027;-85
2022/05/15 12:13:42;;;;;;;8.40;2.70;;;25.10;57.10;;;;;;4991512;28;20381;-85
2022/05/15 12:16:17;;;;;;;8.30;2.55;;;25.10;56.70;;;;;;4960801;28;20434;-85
2022/05/15 12:18:45;;;;;;;9.07;2.90;;;25.20;56.70;;;;;;4973494;28;20054;-86
2022/05/15 12:21:19;;;;;;;7.72;2.58;;;25.30;56.60;;;;;;4989649;28;20457;-85
2022/05/15 12:26:54;;;;;;;8.95;3.08;;;25.40;55.10;;;;;;4973783;28;20109;-86
2022/05/15 12:29:26;;;;;;;7.18;2.50;;;25.50;55.70;;;;;;4977087;28;20455;-86
2022/05/15 12:39:46;;;;;;;10.00;2.70;;;25.70;56.20;;;;;;4980432;28;20031;-87
2022/05/15 12:42:22;;;;;;;6.93;2.40;;;25.80;55.10;;;;;;4992034;28;20031;-85
2022/05/15 12:45:02;;;;;;;7.75;2.55;;;25.80;54.50;;;;;;4979312;28;20050;-86
2022/05/15 12:47:32;;;;;;;11.95;2.88;;;25.90;54.20;;;;;;4993578;28;20073;-86
2022/05/15 12:50:03;;;;;;;9.43;2.20;;;25.90;54.30;;;;;;4993487;28;20062;-85
2022/05/15 12:52:32;;;;;;;6.85;2.28;;;26.00;54.50;;;;;;4993387;28;20113;-86
2022/05/15 12:55:00;;;;;;;7.97;2.13;;;26.00;54.50;;;;;;4979960;28;20019;-87
2022/05/15 12:57:27;;;;;;;8.73;2.67;;;26.10;53.90;;;;;;4999258;28;20026;-84
2022/05/15 12:59:54;;;;;;;8.88;3.13;;;26.10;53.60;;;;;;4987280;28;20030;-86
2022/05/15 13:02:29;;;;;;;11.23;3.85;;;26.20;53.90;;;;;;4980271;28;20117;-86
2022/05/15 13:04:57;;;;;;;7.30;2.40;;;26.20;53.50;;;;;;4988468;28;20034;-86
2022/05/15 13:07:24;;;;;;;11.88;3.35;;;26.30;52.70;;;;;;5004212;28;20072;-86
2022/05/15 13:10:09;;;;;;;8.68;2.90;;;26.30;50.70;;;;;;4988827;28;20023;-86
2022/05/15 13:12:52;;;;;;;7.70;2.50;;;26.30;50.80;;;;;;5007798;28;20027;-86
2022/05/15 13:15:27;;;;;;;9.20;2.78;;;26.40;51.40;;;;;;4990584;28;20161;-84
2022/05/15 13:17:56;;;;;;;7.97;2.42;;;26.40;50.40;;;;;;5007371;28;20466;-85
2022/05/15 13:20:24;;;;;;;10.27;2.72;;;26.50;50.00;;;;;;4988503;28;20015;-85
2022/05/15 13:22:51;;;;;;;6.28;2.15;;;26.50;49.20;;;;;;4981667;28;20028;-84
2022/05/15 13:25:33;;;;;;;8.18;2.38;;;26.60;49.60;;;;;;4988317;28;20019;-85
2022/05/15 13:28:00;;;;;;;7.47;2.45;;;26.60;49.80;;;;;;4988502;28;20054;-85
2022/05/15 13:30:30;;;;;;;9.60;2.47;;;26.70;49.60;;;;;;5004696;28;20022;-85
2022/05/15 13:33:07;;;;;;;7.05;2.58;;;26.70;48.70;;;;;;5003363;28;20027;-86
2022/05/15 13:35:36;;;;;;;8.45;2.53;;;26.80;48.30;;;;;;4989148;28;20349;-86
2022/05/15 13:38:31;;;;;;;6.78;2.13;;;26.80;48.60;;;;;;4990167;28;20102;-86